sensor_id;sensor_type;location;lat;lon;timestamp;P1;durP1;ratioP1;P2;durP2;ratioP2
20166;SDS011;10243;49.118;8.508;2023-03-25T00:00:09;3.30;;;1.35;;
20166;SDS011;10243;49.118;8.508;2023-03-25T00:00:37;5.35;;;1.40;;
20166;SDS011;10243;49.118;8.508;2023-03-25T00:00:58;3.33;;;1.40;;
20166;SDS011;10243;49.118;8.508;2023-03-25T00:01:19;3.10;;;1.20;;
20166;SDS011;10243;49.118;8.508;2023-03-25T00:01:44;2.97;;;1.20;;
20166;SDS011;10243;49.118;8.508;2023-03-25T00:02:05;3.23;;;1.30;;
20166;SDS011;10243;49.118;8.508;2023-03-25T00:02:25;3.00;;;1.30;;
20166;SDS011;10243;49.118;8.508;2023-03-25T00:02:49;4.07;;;1.30;;
20166;SDS011;10243;49.118;8.508;2023-03-25T00:03:10;5.28;;;1.50;;
20166;SDS011;10243;49.118;8.508;2023-03-25T00:03:31;4.50;;;1.48;;
20166;SDS011;10243;49.118;8.508;2023-03-25T00:03:52;3.65;;;1.35;;
20166;SDS011;10243;49.118;8.508;2023-03-25T00:04:14;3.00;;;1.20;;
20166;SDS011;10243;49.118;8.508;2023-03-25T00:04:36;5.72;;;1.50;;
20166;SDS011;10243;49.118;8.508;2023-03-25T00:04:58;3.20;;;1.40;;
20166;SDS011;10243;49.118;8.508;2023-03-25T00:05:20;2.53;;;1.33;;
20166;SDS011;10243;49.118;8.508;2023-03-25T00:05:41;3.00;;;1.30;;
20166;SDS011;10243;49.118;8.508;2023-03-25T00:06:04;3.13;;;1.40;;
20166;SDS011;10243;49.118;8.508;2023-03-25T00:06:24;3.20;;;1.48;;
20166;SDS011;10243;49.118;8.508;2023-03-25T00:06:46;3.93;;;1.50;;
20166;SDS011;10243;49.118;8.508;2023-03-25T00:07:07;3.00;;;1.30;;
20166;SDS011;10243;49.118;8.508;2023-03-25T00:07:28;2.63;;;1.30;;
20166;SDS011;10243;49.118;8.508;2023-03-25T00:07:49;3.40;;;1.33;;
20166;SDS011;10243;49.118;8.508;2023-03-25T00:08:10;3.80;;;1.30;;
20166;SDS011;10243;49.118;8.508;2023-03-25T00:08:32;3.55;;;1.25;;
20166;SDS011;10243;49.118;8.508;2023-03-25T00:08:52;5.00;;;1.40;;
20166;SDS011;10243;49.118;8.508;2023-03-25T00:09:13;4.33;;;1.20;;
20166;SDS011;10243;49.118;8.508;2023-03-25T00:09:33;4.10;;;1.40;;
20166;SDS011;10243;49.118;8.508;2023-03-25T00:09:54;4.78;;;1.30;;
20166;SDS011;10243;49.118;8.508;2023-03-25T00:10:15;6.38;;;1.30;;
20166;SDS011;10243;49.118;8.508;2023-03-25T00:10:36;4.75;;;1.50;;
20166;SDS011;10243;49.118;8.508;2023-03-25T00:10:56;3.27;;;1.40;;
20166;SDS011;10243;49.118;8.508;2023-03-25T00:11:17;2.65;;;1.25;;
20166;SDS011;10243;49.118;8.508;2023-03-25T00:11:37;6.03;;;1.30;;
20166;SDS011;10243;49.118;8.508;2023-03-25T00:11:59;5.38;;;1.30;;
20166;SDS011;10243;49.118;8.508;2023-03-25T00:12:19;3.87;;;1.40;;
20166;SDS011;10243;49.118;8.508;2023-03-25T00:12:40;4.23;;;1.40;;
20166;SDS011;10243;49.118;8.508;2023-03-25T00:13:01;5.82;;;1.45;;
20166;SDS011;10243;49.118;8.508;2023-03-25T00:13:24;5.53;;;1.40;;
20166;SDS011;10243;49.118;8.508;2023-03-25T00:13:46;4.07;;;1.30;;
20166;SDS011;10243;49.118;8.508;2023-03-25T00:14:07;4.15;;;1.30;;
20166;SDS011;10243;49.118;8.508;2023-03-25T00:14:27;4.53;;;1.30;;
20166;SDS011;10243;49.118;8.508;2023-03-25T00:14:48;5.60;;;1.60;;
20166;SDS011;10243;49.118;8.508;2023-03-25T00:15:14;4.53;;;1.40;;
20166;SDS011;10243;49.118;8.508;2023-03-25T00:15:35;3.92;;;1.15;;
20166;SDS011;10243;49.118;8.508;2023-03-25T00:15:56;4.23;;;1.40;;
20166;SDS011;10243;49.118;8.508;2023-03-25T00:16:17;4.95;;;1.55;;
20166;SDS011;10243;49.118;8.508;2023-03-25T00:16:39;6.18;;;1.50;;
20166;SDS011;10243;49.118;8.508;2023-03-25T00:16:59;5.28;;;1.30;;
20166;SDS011;10243;49.118;8.508;2023-03-25T00:17:20;5.53;;;1.40;;
20166;SDS011;10243;49.118;8.508;2023-03-25T00:17:40;4.47;;;1.23;;
20166;SDS011;10243;49.118;8.508;2023-03-25T00:18:01;2.90;;;1.33;;
20166;SDS011;10243;49.118;8.508;2023-03-25T00:18:23;5.43;;;1.58;;
20166;SDS011;10243;49.118;8.508;2023-03-25T00:18:44;4.40;;;1.30;;
20166;SDS011;10243;49.118;8.508;2023-03-25T00:19:06;3.85;;;1.40;;
20166;SDS011;10243;49.118;8.508;2023-03-25T00:19:28;3.28;;;1.45;;
20166;SDS011;10243;49.118;8.508;2023-03-25T00:19:49;4.32;;;1.58;;
20166;SDS011;10243;49.118;8.508;2023-03-25T00:20:10;4.55;;;1.40;;
20166;SDS011;10243;49.118;8.508;2023-03-25T00:20:31;4.83;;;1.30;;
20166;SDS011;10243;49.118;8.508;2023-03-25T00:20:52;4.65;;;1.15;;
20166;SDS011;10243;49.118;8.508;2023-03-25T00:21:13;4.38;;;1.17;;
20166;SDS011;10243;49.118;8.508;2023-03-25T00:21:33;2.77;;;1.37;;
20166;SDS011;10243;49.118;8.508;2023-03-25T00:21:56;3.55;;;1.38;;
20166;SDS011;10243;49.118;8.508;2023-03-25T00:22:16;4.43;;;1.35;;
20166;SDS011;10243;49.118;8.508;2023-03-25T00:22:37;6.33;;;1.40;;
20166;SDS011;10243;49.118;8.508;2023-03-25T00:23:00;4.95;;;1.40;;
20166;SDS011;10243;49.118;8.508;2023-03-25T00:23:21;3.10;;;1.20;;
20166;SDS011;10243;49.118;8.508;2023-03-25T00:23:42;4.88;;;1.40;;
20166;SDS011;10243;49.118;8.508;2023-03-25T00:24:02;3.57;;;1.20;;
20166;SDS011;10243;49.118;8.508;2023-03-25T00:24:22;5.40;;;1.30;;
20166;SDS011;10243;49.118;8.508;2023-03-25T00:24:43;4.17;;;1.50;;
20166;SDS011;10243;49.118;8.508;2023-03-25T00:25:05;3.83;;;1.40;;
20166;SDS011;10243;49.118;8.508;2023-03-25T00:25:25;5.28;;;1.42;;
20166;SDS011;10243;49.118;8.508;2023-03-25T00:25:46;4.07;;;1.52;;
20166;SDS011;10243;49.118;8.508;2023-03-25T00:26:07;4.07;;;1.50;;
20166;SDS011;10243;49.118;8.508;2023-03-25T00:26:28;4.18;;;1.30;;
20166;SDS011;10243;49.118;8.508;2023-03-25T00:26:49;3.65;;;1.33;;
20166;SDS011;10243;49.118;8.508;2023-03-25T00:27:09;3.90;;;1.30;;
20166;SDS011;10243;49.118;8.508;2023-03-25T00:27:30;4.23;;;1.30;;
20166;SDS011;10243;49.118;8.508;2023-03-25T00:27:51;5.53;;;1.50;;
20166;SDS011;10243;49.118;8.508;2023-03-25T00:28:11;4.47;;;1.30;;
20166;SDS011;10243;49.118;8.508;2023-03-25T00:28:33;6.50;;;1.45;;
20166;SDS011;10243;49.118;8.508;2023-03-25T00:28:54;8.27;;;1.48;;
20166;SDS011;10243;49.118;8.508;2023-03-25T00:29:15;3.78;;;1.35;;
20166;SDS011;10243;49.118;8.508;2023-03-25T00:29:36;4.65;;;1.40;;
20166;SDS011;10243;49.118;8.508;2023-03-25T00:29:56;3.60;;;1.23;;
20166;SDS011;10243;49.118;8.508;2023-03-25T00:30:17;5.43;;;1.40;;
20166;SDS011;10243;49.118;8.508;2023-03-25T00:30:38;6.60;;;1.52;;
20166;SDS011;10243;49.118;8.508;2023-03-25T00:31:00;4.43;;;1.40;;
20166;SDS011;10243;49.118;8.508;2023-03-25T00:31:21;5.60;;;1.40;;
20166;SDS011;10243;49.118;8.508;2023-03-25T00:31:41;4.88;;;1.67;;
20166;SDS011;10243;49.118;8.508;2023-03-25T00:32:01;3.30;;;1.40;;
20166;SDS011;10243;49.118;8.508;2023-03-25T00:32:23;6.13;;;1.63;;
20166;SDS011;10243;49.118;8.508;2023-03-25T00:32:43;3.33;;;1.55;;
20166;SDS011;10243;49.118;8.508;2023-03-25T00:33:05;3.75;;;1.60;;
20166;SDS011;10243;49.118;8.508;2023-03-25T00:33:25;4.05;;;1.60;;
20166;SDS011;10243;49.118;8.508;2023-03-25T00:33:47;4.50;;;1.38;;
20166;SDS011;10243;49.118;8.508;2023-03-25T00:34:09;6.00;;;1.63;;
20166;SDS011;10243;49.118;8.508;2023-03-25T00:34:33;4.63;;;1.55;;
20166;SDS011;10243;49.118;8.508;2023-03-25T00:34:54;3.93;;;1.53;;
20166;SDS011;10243;49.118;8.508;2023-03-25T00:35:15;7.50;;;1.63;;
20166;SDS011;10243;49.118;8.508;2023-03-25T00:35:38;5.13;;;1.70;;
20166;SDS011;10243;49.118;8.508;2023-03-25T00:36:04;5.55;;;1.70;;
20166;SDS011;10243;49.118;8.508;2023-03-25T00:36:24;4.10;;;1.60;;
20166;SDS011;10243;49.118;8.508;2023-03-25T00:36:46;5.28;;;1.50;;
20166;SDS011;10243;49.118;8.508;2023-03-25T00:37:08;5.00;;;1.50;;
20166;SDS011;10243;49.118;8.508;2023-03-25T00:37:28;3.45;;;1.48;;
20166;SDS011;10243;49.118;8.508;2023-03-25T00:37:50;7.30;;;1.63;;
20166;SDS011;10243;49.118;8.508;2023-03-25T00:38:16;5.57;;;1.63;;
20166;SDS011;10243;49.118;8.508;2023-03-25T00:38:38;4.18;;;1.45;;
20166;SDS011;10243;49.118;8.508;2023-03-25T00:39:00;5.88;;;1.63;;
20166;SDS011;10243;49.118;8.508;2023-03-25T00:39:21;6.15;;;1.73;;
20166;SDS011;10243;49.118;8.508;2023-03-25T00:39:42;5.53;;;1.48;;
20166;SDS011;10243;49.118;8.508;2023-03-25T00:40:03;5.22;;;1.60;;
20166;SDS011;10243;49.118;8.508;2023-03-25T00:40:25;3.97;;;1.55;;
20166;SDS011;10243;49.118;8.508;2023-03-25T00:40:47;4.38;;;1.55;;
20166;SDS011;10243;49.118;8.508;2023-03-25T00:41:08;4.17;;;1.37;;
20166;SDS011;10243;49.118;8.508;2023-03-25T00:41:29;2.95;;;1.30;;
20166;SDS011;10243;49.118;8.508;2023-03-25T00:41:51;6.47;;;1.67;;
20166;SDS011;10243;49.118;8.508;2023-03-25T00:42:14;4.60;;;1.75;;
20166;SDS011;10243;49.118;8.508;2023-03-25T00:42:34;5.55;;;1.50;;
20166;SDS011;10243;49.118;8.508;2023-03-25T00:42:55;5.75;;;1.45;;
20166;SDS011;10243;49.118;8.508;2023-03-25T00:43:16;4.78;;;1.40;;
20166;SDS011;10243;49.118;8.508;2023-03-25T00:43:37;4.43;;;1.48;;
20166;SDS011;10243;49.118;8.508;2023-03-25T00:43:58;6.93;;;1.60;;
20166;SDS011;10243;49.118;8.508;2023-03-25T00:44:19;6.93;;;1.63;;
20166;SDS011;10243;49.118;8.508;2023-03-25T00:44:41;7.32;;;1.80;;
20166;SDS011;10243;49.118;8.508;2023-03-25T00:45:03;4.85;;;1.60;;
20166;SDS011;10243;49.118;8.508;2023-03-25T00:45:23;4.65;;;1.50;;
20166;SDS011;10243;49.118;8.508;2023-03-25T00:45:44;3.22;;;1.40;;
20166;SDS011;10243;49.118;8.508;2023-03-25T00:46:05;5.60;;;1.60;;
20166;SDS011;10243;49.118;8.508;2023-03-25T00:46:27;6.03;;;1.50;;
20166;SDS011;10243;49.118;8.508;2023-03-25T00:46:48;5.63;;;1.70;;
20166;SDS011;10243;49.118;8.508;2023-03-25T00:47:08;5.83;;;1.70;;
20166;SDS011;10243;49.118;8.508;2023-03-25T00:47:36;6.65;;;1.80;;
20166;SDS011;10243;49.118;8.508;2023-03-25T00:47:56;4.32;;;1.45;;
20166;SDS011;10243;49.118;8.508;2023-03-25T00:48:17;5.10;;;1.53;;
20166;SDS011;10243;49.118;8.508;2023-03-25T00:48:39;4.55;;;1.70;;
20166;SDS011;10243;49.118;8.508;2023-03-25T00:49:02;4.63;;;1.45;;
20166;SDS011;10243;49.118;8.508;2023-03-25T00:49:22;5.47;;;1.50;;
20166;SDS011;10243;49.118;8.508;2023-03-25T00:49:44;5.10;;;1.58;;
20166;SDS011;10243;49.118;8.508;2023-03-25T00:50:05;3.45;;;1.58;;
20166;SDS011;10243;49.118;8.508;2023-03-25T00:50:25;3.90;;;1.40;;
20166;SDS011;10243;49.118;8.508;2023-03-25T00:50:47;5.57;;;1.40;;
20166;SDS011;10243;49.118;8.508;2023-03-25T00:51:08;6.57;;;1.65;;
20166;SDS011;10243;49.118;8.508;2023-03-25T00:51:29;3.80;;;1.38;;
20166;SDS011;10243;49.118;8.508;2023-03-25T00:51:50;3.75;;;1.50;;
20166;SDS011;10243;49.118;8.508;2023-03-25T00:52:12;5.90;;;1.40;;
20166;SDS011;10243;49.118;8.508;2023-03-25T00:52:34;5.72;;;1.58;;
20166;SDS011;10243;49.118;8.508;2023-03-25T00:52:55;3.10;;;1.40;;
20166;SDS011;10243;49.118;8.508;2023-03-25T00:53:15;4.38;;;1.35;;
20166;SDS011;10243;49.118;8.508;2023-03-25T00:53:36;5.60;;;1.40;;
20166;SDS011;10243;49.118;8.508;2023-03-25T00:53:57;4.53;;;1.40;;
20166;SDS011;10243;49.118;8.508;2023-03-25T00:54:20;6.22;;;1.70;;
20166;SDS011;10243;49.118;8.508;2023-03-25T00:54:41;3.67;;;1.52;;
20166;SDS011;10243;49.118;8.508;2023-03-25T00:55:02;4.93;;;1.40;;
20166;SDS011;10243;49.118;8.508;2023-03-25T00:55:23;3.93;;;1.20;;
20166;SDS011;10243;49.118;8.508;2023-03-25T00:55:45;2.78;;;1.40;;
20166;SDS011;10243;49.118;8.508;2023-03-25T00:56:05;4.70;;;1.60;;
20166;SDS011;10243;49.118;8.508;2023-03-25T00:56:26;3.65;;;1.40;;
20166;SDS011;10243;49.118;8.508;2023-03-25T00:56:47;4.65;;;1.38;;
20166;SDS011;10243;49.118;8.508;2023-03-25T00:57:09;6.22;;;1.60;;
20166;SDS011;10243;49.118;8.508;2023-03-25T00:57:29;5.20;;;1.53;;
20166;SDS011;10243;49.118;8.508;2023-03-25T00:57:50;5.15;;;1.50;;
20166;SDS011;10243;49.118;8.508;2023-03-25T00:58:10;5.20;;;1.43;;
20166;SDS011;10243;49.118;8.508;2023-03-25T00:58:31;4.72;;;1.42;;
20166;SDS011;10243;49.118;8.508;2023-03-25T00:58:52;3.92;;;1.30;;
20166;SDS011;10243;49.118;8.508;2023-03-25T00:59:13;3.67;;;1.48;;
20166;SDS011;10243;49.118;8.508;2023-03-25T00:59:33;3.30;;;1.33;;
20166;SDS011;10243;49.118;8.508;2023-03-25T00:59:54;4.53;;;1.40;;
20166;SDS011;10243;49.118;8.508;2023-03-25T01:00:16;4.40;;;1.60;;
20166;SDS011;10243;49.118;8.508;2023-03-25T01:00:36;4.28;;;1.50;;
20166;SDS011;10243;49.118;8.508;2023-03-25T01:00:57;4.22;;;1.40;;
20166;SDS011;10243;49.118;8.508;2023-03-25T01:01:19;4.30;;;1.60;;
20166;SDS011;10243;49.118;8.508;2023-03-25T01:01:42;4.72;;;1.50;;
20166;SDS011;10243;49.118;8.508;2023-03-25T01:02:05;5.10;;;1.50;;
20166;SDS011;10243;49.118;8.508;2023-03-25T01:02:26;4.85;;;1.50;;
20166;SDS011;10243;49.118;8.508;2023-03-25T01:02:47;4.90;;;1.40;;
20166;SDS011;10243;49.118;8.508;2023-03-25T01:03:12;3.90;;;1.55;;
20166;SDS011;10243;49.118;8.508;2023-03-25T01:03:33;4.03;;;1.60;;
20166;SDS011;10243;49.118;8.508;2023-03-25T01:03:56;4.55;;;1.50;;
20166;SDS011;10243;49.118;8.508;2023-03-25T01:04:17;3.25;;;1.48;;
20166;SDS011;10243;49.118;8.508;2023-03-25T01:04:39;3.78;;;1.50;;
20166;SDS011;10243;49.118;8.508;2023-03-25T01:04:59;4.55;;;1.60;;
20166;SDS011;10243;49.118;8.508;2023-03-25T01:05:20;5.80;;;1.60;;
20166;SDS011;10243;49.118;8.508;2023-03-25T01:05:40;4.57;;;1.55;;
20166;SDS011;10243;49.118;8.508;2023-03-25T01:06:01;4.67;;;1.37;;
20166;SDS011;10243;49.118;8.508;2023-03-25T01:06:23;6.32;;;1.70;;
20166;SDS011;10243;49.118;8.508;2023-03-25T01:06:43;6.88;;;1.75;;
20166;SDS011;10243;49.118;8.508;2023-03-25T01:07:04;3.73;;;1.63;;
20166;SDS011;10243;49.118;8.508;2023-03-25T01:07:26;4.40;;;1.60;;
20166;SDS011;10243;49.118;8.508;2023-03-25T01:07:48;4.95;;;1.55;;
20166;SDS011;10243;49.118;8.508;2023-03-25T01:08:08;5.10;;;1.60;;
20166;SDS011;10243;49.118;8.508;2023-03-25T01:08:30;5.05;;;1.50;;
20166;SDS011;10243;49.118;8.508;2023-03-25T01:08:52;5.13;;;1.57;;
20166;SDS011;10243;49.118;8.508;2023-03-25T01:09:13;4.40;;;1.70;;
20166;SDS011;10243;49.118;8.508;2023-03-25T01:09:35;4.25;;;1.50;;
20166;SDS011;10243;49.118;8.508;2023-03-25T01:09:57;4.65;;;1.50;;
20166;SDS011;10243;49.118;8.508;2023-03-25T01:10:18;6.63;;;1.77;;
20166;SDS011;10243;49.118;8.508;2023-03-25T01:10:39;4.13;;;1.57;;
20166;SDS011;10243;49.118;8.508;2023-03-25T01:11:00;5.30;;;1.60;;
20166;SDS011;10243;49.118;8.508;2023-03-25T01:11:22;3.77;;;1.60;;
20166;SDS011;10243;49.118;8.508;2023-03-25T01:11:43;4.45;;;1.50;;
20166;SDS011;10243;49.118;8.508;2023-03-25T01:12:04;5.03;;;1.63;;
20166;SDS011;10243;49.118;8.508;2023-03-25T01:12:26;6.25;;;1.73;;
20166;SDS011;10243;49.118;8.508;2023-03-25T01:12:47;4.82;;;1.33;;
20166;SDS011;10243;49.118;8.508;2023-03-25T01:13:08;6.07;;;1.60;;
20166;SDS011;10243;49.118;8.508;2023-03-25T01:13:29;4.18;;;1.63;;
20166;SDS011;10243;49.118;8.508;2023-03-25T01:13:49;4.87;;;1.67;;
20166;SDS011;10243;49.118;8.508;2023-03-25T01:14:11;6.30;;;1.60;;
20166;SDS011;10243;49.118;8.508;2023-03-25T01:14:32;5.32;;;1.60;;
20166;SDS011;10243;49.118;8.508;2023-03-25T01:14:53;5.55;;;1.60;;
20166;SDS011;10243;49.118;8.508;2023-03-25T01:15:13;4.13;;;1.40;;
20166;SDS011;10243;49.118;8.508;2023-03-25T01:15:34;4.15;;;1.63;;
20166;SDS011;10243;49.118;8.508;2023-03-25T01:15:56;3.70;;;1.60;;
20166;SDS011;10243;49.118;8.508;2023-03-25T01:16:16;3.37;;;1.67;;
20166;SDS011;10243;49.118;8.508;2023-03-25T01:16:36;3.20;;;1.50;;
20166;SDS011;10243;49.118;8.508;2023-03-25T01:16:57;5.10;;;1.73;;
20166;SDS011;10243;49.118;8.508;2023-03-25T01:17:19;5.10;;;1.80;;
20166;SDS011;10243;49.118;8.508;2023-03-25T01:17:39;5.40;;;1.80;;
20166;SDS011;10243;49.118;8.508;2023-03-25T01:18:00;4.70;;;1.55;;
20166;SDS011;10243;49.118;8.508;2023-03-25T01:18:20;4.37;;;1.60;;
20166;SDS011;10243;49.118;8.508;2023-03-25T01:18:41;4.27;;;1.60;;
20166;SDS011;10243;49.118;8.508;2023-03-25T01:19:02;3.40;;;1.50;;
20166;SDS011;10243;49.118;8.508;2023-03-25T01:19:22;3.40;;;1.47;;
20166;SDS011;10243;49.118;8.508;2023-03-25T01:19:43;3.73;;;1.60;;
20166;SDS011;10243;49.118;8.508;2023-03-25T01:20:04;4.60;;;1.48;;
20166;SDS011;10243;49.118;8.508;2023-03-25T01:20:27;5.57;;;1.60;;
20166;SDS011;10243;49.118;8.508;2023-03-25T01:20:48;5.17;;;1.60;;
20166;SDS011;10243;49.118;8.508;2023-03-25T01:21:08;6.65;;;1.60;;
20166;SDS011;10243;49.118;8.508;2023-03-25T01:21:29;5.50;;;1.57;;
20166;SDS011;10243;49.118;8.508;2023-03-25T01:21:53;5.18;;;1.40;;
20166;SDS011;10243;49.118;8.508;2023-03-25T01:22:13;5.60;;;1.50;;
20166;SDS011;10243;49.118;8.508;2023-03-25T01:22:36;5.22;;;1.60;;
20166;SDS011;10243;49.118;8.508;2023-03-25T01:22:57;3.50;;;1.63;;
20166;SDS011;10243;49.118;8.508;2023-03-25T01:23:17;4.70;;;1.60;;
20166;SDS011;10243;49.118;8.508;2023-03-25T01:23:38;5.18;;;1.58;;
20166;SDS011;10243;49.118;8.508;2023-03-25T01:23:59;5.45;;;1.80;;
20166;SDS011;10243;49.118;8.508;2023-03-25T01:24:20;7.13;;;1.80;;
20166;SDS011;10243;49.118;8.508;2023-03-25T01:24:40;5.10;;;1.67;;
20166;SDS011;10243;49.118;8.508;2023-03-25T01:25:01;4.97;;;1.70;;
20166;SDS011;10243;49.118;8.508;2023-03-25T01:25:23;4.47;;;1.70;;
20166;SDS011;10243;49.118;8.508;2023-03-25T01:25:44;6.37;;;1.80;;
20166;SDS011;10243;49.118;8.508;2023-03-25T01:26:04;5.30;;;1.58;;
20166;SDS011;10243;49.118;8.508;2023-03-25T01:26:25;5.87;;;1.57;;
20166;SDS011;10243;49.118;8.508;2023-03-25T01:26:47;5.07;;;1.60;;
20166;SDS011;10243;49.118;8.508;2023-03-25T01:27:07;4.30;;;1.70;;
20166;SDS011;10243;49.118;8.508;2023-03-25T01:27:28;6.75;;;1.60;;
20166;SDS011;10243;49.118;8.508;2023-03-25T01:27:49;5.03;;;1.50;;
20166;SDS011;10243;49.118;8.508;2023-03-25T01:28:10;6.03;;;1.80;;
20166;SDS011;10243;49.118;8.508;2023-03-25T01:28:31;4.60;;;1.57;;
20166;SDS011;10243;49.118;8.508;2023-03-25T01:28:51;3.33;;;1.40;;
20166;SDS011;10243;49.118;8.508;2023-03-25T01:29:13;5.10;;;1.80;;
20166;SDS011;10243;49.118;8.508;2023-03-25T01:29:35;8.07;;;1.70;;
20166;SDS011;10243;49.118;8.508;2023-03-25T01:29:55;6.22;;;1.60;;
20166;SDS011;10243;49.118;8.508;2023-03-25T01:30:16;6.30;;;1.70;;
20166;SDS011;10243;49.118;8.508;2023-03-25T01:30:36;4.60;;;1.70;;
20166;SDS011;10243;49.118;8.508;2023-03-25T01:31:00;6.45;;;1.70;;
20166;SDS011;10243;49.118;8.508;2023-03-25T01:31:21;5.13;;;1.55;;
20166;SDS011;10243;49.118;8.508;2023-03-25T01:31:42;5.10;;;1.52;;
20166;SDS011;10243;49.118;8.508;2023-03-25T01:32:04;5.97;;;1.83;;
20166;SDS011;10243;49.118;8.508;2023-03-25T01:32:25;5.93;;;1.75;;
20166;SDS011;10243;49.118;8.508;2023-03-25T01:32:47;7.30;;;1.60;;
20166;SDS011;10243;49.118;8.508;2023-03-25T01:33:08;8.07;;;1.80;;
20166;SDS011;10243;49.118;8.508;2023-03-25T01:33:28;4.22;;;1.70;;
20166;SDS011;10243;49.118;8.508;2023-03-25T01:33:49;5.18;;;1.77;;
20166;SDS011;10243;49.118;8.508;2023-03-25T01:34:10;6.93;;;1.63;;
20166;SDS011;10243;49.118;8.508;2023-03-25T01:34:31;5.25;;;1.73;;
20166;SDS011;10243;49.118;8.508;2023-03-25T01:34:52;5.43;;;1.90;;
20166;SDS011;10243;49.118;8.508;2023-03-25T01:35:12;5.80;;;1.60;;
20166;SDS011;10243;49.118;8.508;2023-03-25T01:35:33;5.05;;;1.60;;
20166;SDS011;10243;49.118;8.508;2023-03-25T01:35:54;5.00;;;1.50;;
20166;SDS011;10243;49.118;8.508;2023-03-25T01:36:15;5.13;;;1.40;;
20166;SDS011;10243;49.118;8.508;2023-03-25T01:36:35;5.00;;;1.60;;
20166;SDS011;10243;49.118;8.508;2023-03-25T01:36:58;4.97;;;1.80;;
20166;SDS011;10243;49.118;8.508;2023-03-25T01:37:20;4.45;;;1.77;;
20166;SDS011;10243;49.118;8.508;2023-03-25T01:37:43;8.10;;;1.52;;
20166;SDS011;10243;49.118;8.508;2023-03-25T01:38:03;6.20;;;1.65;;
20166;SDS011;10243;49.118;8.508;2023-03-25T01:38:24;6.70;;;1.50;;
20166;SDS011;10243;49.118;8.508;2023-03-25T01:38:45;4.40;;;1.58;;
20166;SDS011;10243;49.118;8.508;2023-03-25T01:39:07;4.68;;;1.80;;
20166;SDS011;10243;49.118;8.508;2023-03-25T01:39:29;6.88;;;2.08;;
20166;SDS011;10243;49.118;8.508;2023-03-25T01:39:50;5.83;;;1.60;;
20166;SDS011;10243;49.118;8.508;2023-03-25T01:40:11;5.40;;;1.60;;
20166;SDS011;10243;49.118;8.508;2023-03-25T01:40:35;8.95;;;1.60;;
20166;SDS011;10243;49.118;8.508;2023-03-25T01:40:57;6.72;;;1.58;;
20166;SDS011;10243;49.118;8.508;2023-03-25T01:41:17;5.43;;;1.55;;
20166;SDS011;10243;49.118;8.508;2023-03-25T01:41:38;7.43;;;1.50;;
20166;SDS011;10243;49.118;8.508;2023-03-25T01:41:59;9.48;;;1.52;;
20166;SDS011;10243;49.118;8.508;2023-03-25T01:42:20;11.43;;;1.67;;
20166;SDS011;10243;49.118;8.508;2023-03-25T01:42:40;9.40;;;1.80;;
20166;SDS011;10243;49.118;8.508;2023-03-25T01:43:01;3.60;;;1.73;;
20166;SDS011;10243;49.118;8.508;2023-03-25T01:43:22;5.47;;;1.70;;
20166;SDS011;10243;49.118;8.508;2023-03-25T01:45:15;8.45;;;1.88;;
20166;SDS011;10243;49.118;8.508;2023-03-25T01:45:37;10.93;;;1.98;;
20166;SDS011;10243;49.118;8.508;2023-03-25T01:45:57;7.20;;;1.70;;
20166;SDS011;10243;49.118;8.508;2023-03-25T01:46:17;4.57;;;1.70;;
20166;SDS011;10243;49.118;8.508;2023-03-25T01:46:38;4.85;;;1.88;;
20166;SDS011;10243;49.118;8.508;2023-03-25T01:47:04;5.95;;;1.67;;
20166;SDS011;10243;49.118;8.508;2023-03-25T01:47:25;5.45;;;1.67;;
20166;SDS011;10243;49.118;8.508;2023-03-25T01:47:47;5.93;;;1.67;;
20166;SDS011;10243;49.118;8.508;2023-03-25T01:48:09;7.05;;;1.65;;
20166;SDS011;10243;49.118;8.508;2023-03-25T01:48:33;6.07;;;1.65;;
20166;SDS011;10243;49.118;8.508;2023-03-25T01:48:56;4.57;;;1.60;;
20166;SDS011;10243;49.118;8.508;2023-03-25T01:49:17;4.07;;;1.60;;
20166;SDS011;10243;49.118;8.508;2023-03-25T01:49:41;3.83;;;1.60;;
20166;SDS011;10243;49.118;8.508;2023-03-25T01:50:03;5.57;;;1.60;;
20166;SDS011;10243;49.118;8.508;2023-03-25T01:50:24;4.93;;;1.67;;
20166;SDS011;10243;49.118;8.508;2023-03-25T01:50:49;5.47;;;1.77;;
20166;SDS011;10243;49.118;8.508;2023-03-25T01:51:11;6.68;;;1.90;;
20166;SDS011;10243;49.118;8.508;2023-03-25T01:51:34;4.72;;;1.60;;
20166;SDS011;10243;49.118;8.508;2023-03-25T01:51:56;5.78;;;1.48;;
20166;SDS011;10243;49.118;8.508;2023-03-25T01:52:20;5.70;;;1.70;;
20166;SDS011;10243;49.118;8.508;2023-03-25T01:52:44;6.10;;;1.60;;
20166;SDS011;10243;49.118;8.508;2023-03-25T01:53:06;5.03;;;1.48;;
20166;SDS011;10243;49.118;8.508;2023-03-25T01:53:26;5.35;;;1.52;;
20166;SDS011;10243;49.118;8.508;2023-03-25T01:53:50;3.97;;;1.33;;
20166;SDS011;10243;49.118;8.508;2023-03-25T01:54:12;4.65;;;1.60;;
20166;SDS011;10243;49.118;8.508;2023-03-25T01:54:37;5.63;;;1.50;;
20166;SDS011;10243;49.118;8.508;2023-03-25T01:54:58;3.83;;;1.30;;
20166;SDS011;10243;49.118;8.508;2023-03-25T01:55:19;2.90;;;1.35;;
20166;SDS011;10243;49.118;8.508;2023-03-25T01:55:41;4.60;;;1.23;;
20166;SDS011;10243;49.118;8.508;2023-03-25T01:56:02;4.60;;;1.25;;
20166;SDS011;10243;49.118;8.508;2023-03-25T01:56:25;3.80;;;1.25;;
20166;SDS011;10243;49.118;8.508;2023-03-25T01:56:46;2.35;;;1.00;;
20166;SDS011;10243;49.118;8.508;2023-03-25T01:57:09;2.88;;;1.10;;
20166;SDS011;10243;49.118;8.508;2023-03-25T01:57:31;3.25;;;1.20;;
20166;SDS011;10243;49.118;8.508;2023-03-25T01:57:53;3.72;;;1.20;;
20166;SDS011;10243;49.118;8.508;2023-03-25T01:58:14;3.50;;;1.40;;
20166;SDS011;10243;49.118;8.508;2023-03-25T01:58:36;3.88;;;1.20;;
20166;SDS011;10243;49.118;8.508;2023-03-25T01:58:58;3.63;;;1.10;;
20166;SDS011;10243;49.118;8.508;2023-03-25T01:59:21;2.67;;;1.00;;
20166;SDS011;10243;49.118;8.508;2023-03-25T01:59:43;2.72;;;1.10;;
20166;SDS011;10243;49.118;8.508;2023-03-25T02:00:05;3.67;;;1.20;;
20166;SDS011;10243;49.118;8.508;2023-03-25T02:00:32;3.88;;;1.00;;
20166;SDS011;10243;49.118;8.508;2023-03-25T02:00:54;2.88;;;1.10;;
20166;SDS011;10243;49.118;8.508;2023-03-25T02:01:15;2.58;;;1.10;;
20166;SDS011;10243;49.118;8.508;2023-03-25T02:01:36;3.35;;;1.10;;
20166;SDS011;10243;49.118;8.508;2023-03-25T02:01:58;2.70;;;1.00;;
20166;SDS011;10243;49.118;8.508;2023-03-25T02:02:20;3.58;;;1.20;;
20166;SDS011;10243;49.118;8.508;2023-03-25T02:02:44;3.67;;;1.00;;
20166;SDS011;10243;49.118;8.508;2023-03-25T02:03:05;3.22;;;1.08;;
20166;SDS011;10243;49.118;8.508;2023-03-25T02:03:28;4.53;;;1.20;;
20166;SDS011;10243;49.118;8.508;2023-03-25T02:03:49;3.28;;;0.90;;
20166;SDS011;10243;49.118;8.508;2023-03-25T02:04:12;3.67;;;0.80;;
20166;SDS011;10243;49.118;8.508;2023-03-25T02:04:34;1.65;;;0.73;;
20166;SDS011;10243;49.118;8.508;2023-03-25T02:04:58;2.15;;;0.80;;
20166;SDS011;10243;49.118;8.508;2023-03-25T02:05:20;2.00;;;0.80;;
20166;SDS011;10243;49.118;8.508;2023-03-25T02:05:43;2.13;;;0.90;;
20166;SDS011;10243;49.118;8.508;2023-03-25T02:06:06;1.80;;;0.77;;
20166;SDS011;10243;49.118;8.508;2023-03-25T02:06:29;2.25;;;0.90;;
20166;SDS011;10243;49.118;8.508;2023-03-25T02:06:51;3.10;;;0.93;;
20166;SDS011;10243;49.118;8.508;2023-03-25T02:07:13;2.20;;;0.93;;
20166;SDS011;10243;49.118;8.508;2023-03-25T02:07:36;2.40;;;1.05;;
20166;SDS011;10243;49.118;8.508;2023-03-25T02:07:59;2.70;;;0.95;;
20166;SDS011;10243;49.118;8.508;2023-03-25T02:08:22;2.17;;;0.88;;
20166;SDS011;10243;49.118;8.508;2023-03-25T02:08:43;1.93;;;0.83;;
20166;SDS011;10243;49.118;8.508;2023-03-25T02:09:03;1.92;;;0.90;;
20166;SDS011;10243;49.118;8.508;2023-03-25T02:09:25;2.10;;;1.00;;
20166;SDS011;10243;49.118;8.508;2023-03-25T02:09:47;2.55;;;1.10;;
20166;SDS011;10243;49.118;8.508;2023-03-25T02:10:09;1.60;;;0.90;;
20166;SDS011;10243;49.118;8.508;2023-03-25T02:10:30;1.95;;;0.90;;
20166;SDS011;10243;49.118;8.508;2023-03-25T02:10:51;1.95;;;1.00;;